createdAt,value
2019-04-07T00:03:05.614Z,99317.96
2019-04-07T00:08:10.093Z,99317.96
2019-04-07T00:13:14.033Z,99317.96
2019-04-07T00:18:17.958Z,99317.00
2019-04-07T00:23:21.795Z,99302.93
2019-04-07T00:28:25.628Z,99320.21
2019-04-07T00:33:29.426Z,99313.65
2019-04-07T00:38:33.320Z,99317.84
2019-04-07T00:43:37.058Z,99311.74
2019-04-07T00:48:41.070Z,99309.90
2019-04-07T00:53:45.431Z,99310.90
2019-04-07T00:58:49.940Z,99304.22
2019-04-07T01:03:54.643Z,99320.31
2019-04-07T01:08:59.100Z,99313.50
2019-04-07T01:14:03.123Z,99313.50
2019-04-07T01:19:07.341Z,99323.97
2019-04-07T01:24:11.130Z,99326.31
2019-04-07T01:29:14.911Z,99327.66
2019-04-07T01:34:18.711Z,99342.78
2019-04-07T01:39:22.989Z,99340.25
2019-04-07T01:44:49.695Z,99340.09
2019-04-07T01:50:11.972Z,99321.56
2019-04-07T01:55:43.875Z,99321.56
2019-04-07T02:01:06.756Z,99342.59
2019-04-07T02:06:33.214Z,99334.88
2019-04-07T02:11:49.345Z,99334.88
2019-04-07T02:17:18.088Z,99333.03
2019-04-07T02:22:39.620Z,99333.03
2019-04-07T02:27:52.128Z,99338.91
2019-04-07T02:33:21.091Z,99341.75
2019-04-07T02:38:30.335Z,99341.75
2019-04-07T02:43:44.652Z,99338.87
2019-04-07T02:49:14.172Z,99327.72
2019-04-07T02:54:37.860Z,99327.72
2019-04-07T02:59:53.364Z,99337.87
2019-04-07T03:05:19.896Z,99347.13
2019-04-07T03:10:55.476Z,99342.06
2019-04-07T03:16:22.476Z,99347.78
2019-04-07T03:21:57.815Z,99347.78
2019-04-07T03:27:19.361Z,99337.53
2019-04-07T03:32:54.197Z,99337.53
2019-04-07T03:38:06.473Z,99339.06
2019-04-07T03:43:23.907Z,99343.59
2019-04-07T03:48:41.601Z,99340.06
2019-04-07T03:54:07.677Z,99348.82
2019-04-07T03:59:36.578Z,99340.56
2019-04-07T04:04:59.709Z,99344.59
2019-04-07T04:10:23.681Z,99344.59
2019-04-07T04:15:53.191Z,99353.51
2019-04-07T04:20:57.328Z,99353.51
2019-04-07T04:26:02.385Z,99350.98
2019-04-07T04:31:06.765Z,99350.98
2019-04-07T04:36:10.644Z,99353.81
2019-04-07T04:41:14.477Z,99356.98
2019-04-07T04:46:18.620Z,99356.98
2019-04-07T04:51:22.657Z,99364.81
2019-04-07T04:56:26.454Z,99368.78
2019-04-07T05:01:30.975Z,99370.59
2019-04-07T05:06:35.712Z,99375.47
2019-04-07T05:11:39.522Z,99375.47
2019-04-07T05:16:43.585Z,99374.02
2019-04-07T05:21:47.420Z,99374.02
2019-04-07T05:26:51.178Z,99376.16
2019-04-07T05:31:55.679Z,99379.34
2019-04-07T05:36:59.640Z,99390.94
2019-04-07T05:42:03.538Z,99393.05
2019-04-07T05:47:10.881Z,99391.22
2019-04-07T05:52:13.904Z,99391.22
2019-04-07T05:57:18.559Z,99395.05
2019-04-07T06:02:22.468Z,99409.48
2019-04-07T06:07:30.253Z,99411.67
2019-04-07T06:12:31.774Z,99409.63
2019-04-07T06:17:35.803Z,99413.81
2019-04-07T06:22:40.434Z,99413.81
2019-04-07T06:27:45.224Z,99419.19
2019-04-07T06:32:50.513Z,99419.80
2019-04-07T06:37:56.886Z,99420.69
2019-04-07T06:43:01.588Z,99420.69
2019-04-07T06:48:08.221Z,99417.13
2019-04-07T06:53:29.208Z,99417.13
2019-04-07T06:58:51.487Z,99421.30
2019-04-07T07:04:14.003Z,99421.30
2019-04-07T07:09:33.333Z,99444.75
2019-04-07T07:15:03.431Z,99443.77
2019-04-07T07:20:28.711Z,99445.70
2019-04-07T07:25:33.254Z,99448.35
2019-04-07T07:30:37.188Z,99448.35
2019-04-07T07:35:40.992Z,99443.14
2019-04-07T07:40:47.418Z,99445.69
2019-04-07T07:45:51.235Z,99445.98
2019-04-07T07:50:55.820Z,99445.98
2019-04-07T07:55:59.746Z,99444.20
2019-04-07T08:01:04.301Z,99444.20
2019-04-07T08:06:08.455Z,99450.42
2019-04-07T08:11:15.337Z,99454.30
2019-04-07T08:16:18.566Z,99454.30
2019-04-07T08:21:23.557Z,99457.42
2019-04-07T08:26:27.853Z,99451.61
2019-04-07T08:31:31.701Z,99454.80
2019-04-07T08:36:35.503Z,99456.72
2019-04-07T08:41:41.381Z,99451.50
2019-04-07T08:46:45.403Z,99456.72
2019-04-07T08:51:51.058Z,99456.72
2019-04-07T08:56:56.824Z,99456.28
2019-04-07T09:02:00.393Z,99450.86
2019-04-07T09:07:05.133Z,99451.00
2019-04-07T09:12:09.268Z,99444.06
2019-04-07T09:17:32.143Z,99444.06
2019-04-07T09:22:56.662Z,99453.05
2019-04-07T09:28:21.246Z,99453.05
2019-04-07T09:33:49.297Z,99449.87
2019-04-07T09:39:20.269Z,99438.69
2019-04-07T09:44:38.886Z,99447.53
2019-04-07T09:50:01.642Z,99451.11
2019-04-07T09:55:37.870Z,99451.11
2019-04-07T10:00:51.248Z,99444.55
2019-04-07T10:06:02.947Z,99441.25
2019-04-07T10:11:19.731Z,99441.25
2019-04-07T10:16:45.794Z,99428.38
2019-04-07T10:22:04.347Z,99442.28
2019-04-07T10:27:31.284Z,99438.14
2019-04-07T10:32:53.163Z,99434.80
2019-04-07T10:38:01.967Z,99434.80
2019-04-07T10:43:23.997Z,99422.22
2019-04-07T10:48:40.158Z,99435.23
2019-04-07T10:54:03.738Z,99429.20
2019-04-07T10:59:29.145Z,99424.36
2019-04-07T11:04:47.441Z,99430.58
2019-04-07T11:10:01.235Z,99430.58
2019-04-07T11:15:25.927Z,99425.61
2019-04-07T11:20:43.369Z,99417.67
2019-04-07T11:26:13.481Z,99424.19
2019-04-07T11:31:39.471Z,99421.16
2019-04-07T11:37:06.288Z,99425.39
2019-04-07T11:42:28.537Z,99402.55
2019-04-07T11:47:50.150Z,99422.52
2019-04-07T11:53:16.722Z,99423.88
2019-04-07T11:58:35.706Z,99418.37
2019-04-07T12:03:46.440Z,99418.37
2019-04-07T12:09:06.524Z,99410.11
2019-04-07T12:14:41.752Z,99420.69
2019-04-07T12:19:56.922Z,99417.85
2019-04-07T12:25:18.985Z,99415.82
2019-04-07T12:30:54.538Z,99415.82
2019-04-07T12:36:16.272Z,99405.58
2019-04-07T12:41:29.774Z,99413.41
2019-04-07T12:47:03.704Z,99397.61
2019-04-07T12:52:31.173Z,99390.52
2019-04-07T12:57:42.529Z,99393.25
2019-04-07T13:02:58.490Z,99393.25
2019-04-07T13:08:11.094Z,99388.75
2019-04-07T13:13:34.085Z,99378.39
2019-04-07T13:18:50.916Z,99382.81
2019-04-07T13:24:13.340Z,99382.81
2019-04-07T13:29:40.921Z,99373.75
2019-04-07T13:35:02.669Z,99370.87
2019-04-07T13:40:44.102Z,99372.91
2019-04-07T13:46:22.206Z,99362.92
2019-04-07T13:51:44.801Z,99362.92
2019-04-07T13:57:25.605Z,99360.61
2019-04-07T14:02:35.580Z,99364.64
2019-04-07T14:07:51.795Z,99342.84
2019-04-07T14:13:29.997Z,99362.42
2019-04-07T14:18:46.864Z,99362.42
2019-04-07T14:24:03.617Z,99365.61
2019-04-07T14:29:28.387Z,99353.70
2019-04-07T14:34:50.924Z,99353.70
2019-04-07T14:40:01.016Z,99358.23
2019-04-07T14:45:24.347Z,99355.89
2019-04-07T14:50:39.617Z,99355.55
2019-04-07T14:55:56.008Z,99359.58
2019-04-07T15:01:18.092Z,99355.70
2019-04-07T15:06:22.834Z,99349.83
2019-04-07T15:11:31.237Z,99361.23
2019-04-07T15:16:36.684Z,99351.98
2019-04-07T15:21:41.201Z,99364.22
2019-04-07T15:26:49.497Z,99355.51
2019-04-07T15:31:51.885Z,99347.83
2019-04-07T15:36:56.849Z,99353.97
2019-04-07T15:42:00.984Z,99353.97
2019-04-07T15:47:05.036Z,99350.88
2019-04-07T15:52:09.954Z,99350.88
2019-04-07T15:57:15.001Z,99357.54
2019-04-07T16:02:19.306Z,99357.54
2019-04-07T16:07:23.303Z,99359.38
2019-04-07T16:12:27.101Z,99362.89
2019-04-07T16:17:33.860Z,99359.89
2019-04-07T16:22:36.719Z,99369.98
2019-04-07T16:27:40.903Z,99369.98
2019-04-07T16:32:44.979Z,99373.17
2019-04-07T16:37:48.874Z,99369.64
2019-04-07T16:43:05.479Z,99370.64
2019-04-07T16:47:58.820Z,99369.02
2019-04-07T16:53:04.408Z,99371.98
2019-04-07T16:58:08.461Z,99371.98
2019-04-07T17:03:13.179Z,99374.17
2019-04-07T17:08:19.619Z,99379.83
2019-04-07T17:13:31.393Z,99379.83
2019-04-07T17:18:41.338Z,99381.48
2019-04-07T17:23:45.623Z,99381.48
2019-04-07T17:28:49.982Z,99389.88
2019-04-07T17:33:54.070Z,99393.91
2019-04-07T17:39:15.801Z,99398.22
2019-04-07T17:44:39.153Z,99405.70
2019-04-07T17:50:11.196Z,99403.59
2019-04-07T17:55:33.144Z,99408.35
2019-04-07T18:01:01.835Z,99408.35
2019-04-07T18:06:24.944Z,99421.67
2019-04-07T18:11:37.924Z,99421.67
2019-04-07T18:17:09.734Z,99416.01
2019-04-07T18:22:31.564Z,99432.05
2019-04-07T18:27:48.249Z,99436.09
2019-04-07T18:32:58.657Z,99443.30
2019-04-07T18:38:30.835Z,99451.72
2019-04-07T18:44:00.748Z,99451.72
2019-04-07T18:49:16.957Z,99457.59
2019-04-07T18:54:48.749Z,99465.66
2019-04-07T19:00:14.778Z,99469.20
2019-04-07T19:05:40.700Z,99476.30
2019-04-07T19:11:26.109Z,99472.73
2019-04-07T19:16:49.299Z,99477.27
2019-04-07T19:22:21.265Z,99477.77
2019-04-07T19:28:00.147Z,99474.58
2019-04-07T19:33:23.931Z,99477.77
2019-04-07T19:38:45.360Z,99477.77
2019-04-07T19:44:09.459Z,99479.30
2019-04-07T19:49:30.344Z,99479.99
2019-04-07T19:55:08.518Z,99483.07
2019-04-07T20:00:30.586Z,99479.04
2019-04-07T20:05:58.500Z,99479.04
2019-04-07T20:11:39.986Z,99485.72
2019-04-07T20:16:55.963Z,99486.91
2019-04-07T20:22:06.868Z,99487.91
2019-04-07T20:27:33.890Z,99487.91
2019-04-07T20:32:46.995Z,99484.72
2019-04-07T20:38:15.926Z,99483.37
2019-04-07T20:43:28.518Z,99488.80
2019-04-07T20:48:54.096Z,99488.80
2019-04-07T20:54:11.169Z,99492.98
2019-04-07T20:59:26.929Z,99492.98
2019-04-07T21:04:43.867Z,99491.31
2019-04-07T21:10:09.565Z,99491.31
2019-04-07T21:15:30.556Z,99491.31
2019-04-07T21:20:57.400Z,99488.63
2019-04-07T21:26:07.946Z,99487.32
2019-04-07T21:31:19.795Z,99488.66
2019-04-07T21:36:33.062Z,99481.59
2019-04-07T21:41:59.191Z,99489.16
2019-04-07T21:47:29.032Z,99489.16
2019-04-07T21:53:01.300Z,99488.66
2019-04-07T21:58:13.006Z,99489.85
2019-04-07T22:03:54.593Z,99491.05
2019-04-07T22:09:03.325Z,99491.05
2019-04-07T22:14:07.773Z,99493.23
2019-04-07T22:19:14.774Z,99474.95
2019-04-07T22:24:17.380Z,99474.95
2019-04-07T22:29:22.400Z,99494.73
2019-04-07T22:34:29.856Z,99494.73
2019-04-07T22:39:32.137Z,99497.42
2019-04-07T22:44:36.040Z,99499.61
2019-04-07T22:49:41.468Z,99493.39
2019-04-07T22:54:45.374Z,99499.46
2019-04-07T22:59:49.208Z,99495.92
2019-04-07T23:04:52.994Z,99497.99
2019-04-07T23:09:57.821Z,99494.45
2019-04-07T23:15:03.620Z,99494.45
2019-04-07T23:20:08.950Z,99496.14
2019-04-07T23:25:12.841Z,99506.06
2019-04-07T23:30:17.335Z,99506.06
2019-04-07T23:35:22.181Z,99504.22
2019-04-07T23:40:26.068Z,99505.34
2019-04-07T23:52:04.778Z,99510.44
2019-04-07T23:57:08.712Z,99497.99
